createdAt,value
2017-07-18T00:01:55.419Z,56.80
2017-07-18T00:04:22.966Z,56.70
2017-07-18T00:06:50.526Z,56.60
2017-07-18T00:09:18.065Z,56.30
2017-07-18T00:11:45.593Z,56.10
2017-07-18T00:14:13.919Z,56.60
2017-07-18T00:16:41.487Z,55.90
2017-07-18T00:19:09.013Z,56.20
2017-07-18T00:21:36.602Z,56.10
2017-07-18T00:24:04.126Z,55.90
2017-07-18T00:26:31.713Z,56.00
2017-07-18T00:28:59.277Z,56.70
2017-07-18T00:31:26.829Z,56.30
2017-07-18T00:33:54.392Z,56.20
2017-07-18T00:36:21.907Z,56.40
2017-07-18T00:38:50.199Z,56.50
2017-07-18T00:41:17.782Z,56.50
2017-07-18T00:43:45.361Z,56.50
2017-07-18T00:46:13.106Z,56.70
2017-07-18T00:48:40.666Z,57.50
2017-07-18T00:51:08.226Z,57.50
2017-07-18T00:53:35.745Z,57.60
2017-07-18T00:56:04.063Z,57.20
2017-07-18T00:58:31.627Z,57.20
2017-07-18T01:00:59.149Z,57.30
2017-07-18T01:03:26.734Z,57.20
2017-07-18T01:05:54.294Z,57.20
2017-07-18T01:08:21.859Z,57.30
2017-07-18T01:10:49.404Z,57.00
2017-07-18T01:13:16.974Z,56.80
2017-07-18T01:15:44.497Z,56.80
2017-07-18T01:18:12.091Z,56.70
2017-07-18T01:20:39.646Z,56.60
2017-07-18T01:23:07.418Z,56.70
2017-07-18T01:25:34.978Z,56.50
2017-07-18T01:28:02.534Z,56.50
2017-07-18T01:30:30.089Z,56.50
2017-07-18T01:32:57.650Z,57.10
2017-07-18T01:35:25.210Z,56.60
2017-07-18T01:37:52.730Z,56.70
2017-07-18T01:40:21.011Z,56.70
2017-07-18T01:42:48.534Z,56.60
2017-07-18T01:45:16.157Z,56.80
2017-07-18T01:47:43.718Z,56.80
2017-07-18T01:50:11.279Z,57.10
2017-07-18T01:52:38.937Z,57.10
2017-07-18T01:55:06.453Z,57.20
2017-07-18T01:57:34.744Z,57.50
2017-07-18T02:00:02.347Z,57.40
2017-07-18T02:02:29.894Z,57.60
2017-07-18T02:04:57.449Z,57.90
2017-07-18T02:07:25.006Z,58.00
2017-07-18T02:09:52.566Z,58.00
2017-07-18T02:12:20.159Z,57.90
2017-07-18T02:14:47.686Z,58.60
2017-07-18T02:17:15.245Z,58.80
2017-07-18T02:19:42.806Z,59.40
2017-07-18T02:22:10.362Z,59.60
2017-07-18T02:24:38.058Z,59.30
2017-07-18T02:27:05.576Z,59.10
2017-07-18T02:29:33.145Z,59.00
2017-07-18T02:32:00.672Z,59.90
2017-07-18T02:34:28.255Z,59.90
2017-07-18T02:36:55.823Z,60.40
2017-07-18T02:39:23.373Z,59.50
2017-07-18T02:41:50.936Z,59.30
2017-07-18T02:44:18.458Z,59.20
2017-07-18T02:46:46.747Z,59.00
2017-07-18T02:49:14.329Z,59.00
2017-07-18T02:51:41.890Z,59.10
2017-07-18T02:54:09.446Z,59.30
2017-07-18T02:56:37.007Z,59.20
2017-07-18T02:59:04.566Z,59.60
2017-07-18T03:01:32.226Z,59.30
2017-07-18T03:03:59.789Z,59.30
2017-07-18T03:06:27.347Z,59.40
2017-07-18T03:08:54.898Z,59.80
2017-07-18T03:11:22.470Z,60.30
2017-07-18T03:13:50.126Z,60.50
2017-07-18T03:16:17.683Z,60.60
2017-07-18T03:18:45.206Z,60.40
2017-07-18T03:21:12.736Z,60.20
2017-07-18T03:23:40.366Z,60.00
2017-07-18T03:26:08.002Z,60.10
2017-07-18T03:28:35.532Z,59.90
2017-07-18T03:31:03.855Z,60.20
2017-07-18T03:33:31.426Z,60.10
2017-07-18T03:35:58.980Z,59.90
2017-07-18T03:38:26.534Z,59.90
2017-07-18T03:40:54.094Z,59.80
2017-07-18T03:43:21.642Z,60.00
2017-07-18T03:45:49.166Z,59.80
2017-07-18T03:48:17.463Z,59.90
2017-07-18T03:50:45.023Z,59.80
2017-07-18T03:53:12.602Z,59.90
2017-07-18T03:55:40.133Z,60.20
2017-07-18T03:58:07.659Z,61.10
2017-07-18T04:00:35.291Z,61.10
2017-07-18T04:03:02.846Z,61.00
2017-07-18T04:05:30.393Z,60.50
2017-07-18T04:07:57.918Z,60.80
2017-07-18T04:10:25.452Z,60.80
2017-07-18T04:12:52.979Z,61.00
2017-07-18T04:15:20.522Z,60.80
2017-07-18T04:17:48.081Z,61.10
2017-07-18T04:20:15.665Z,60.70
2017-07-18T04:22:43.302Z,60.50
2017-07-18T04:25:10.867Z,60.30
2017-07-18T04:27:38.435Z,60.10
2017-07-18T04:30:05.990Z,59.90
2017-07-18T04:32:33.540Z,60.00
2017-07-18T04:35:01.100Z,59.80
2017-07-18T04:37:28.658Z,59.70
2017-07-18T04:39:56.327Z,59.50
2017-07-18T04:42:23.882Z,59.50
2017-07-18T04:44:51.410Z,59.90
2017-07-18T04:47:18.993Z,59.90
2017-07-18T04:49:46.559Z,59.70
2017-07-18T04:52:14.214Z,60.40
2017-07-18T04:54:41.770Z,60.60
2017-07-18T04:57:09.307Z,60.00
2017-07-18T04:59:36.889Z,59.80
2017-07-18T05:02:04.455Z,60.20
2017-07-18T05:04:32.111Z,60.00
2017-07-18T05:06:59.669Z,59.80
2017-07-18T05:09:27.189Z,59.60
2017-07-18T05:11:55.510Z,59.30
2017-07-18T05:14:23.042Z,59.30
2017-07-18T05:16:50.630Z,59.20
2017-07-18T05:19:18.186Z,59.30
2017-07-18T05:21:45.741Z,59.30
2017-07-18T05:24:13.301Z,59.30
2017-07-18T05:26:40.836Z,59.20
2017-07-18T05:29:08.418Z,58.90
2017-07-18T05:31:35.953Z,58.80
2017-07-18T05:34:03.539Z,59.00
2017-07-18T05:36:31.091Z,58.60
2017-07-18T05:38:58.658Z,58.50
2017-07-18T05:41:26.182Z,58.70
2017-07-18T05:43:53.767Z,58.80
2017-07-18T05:46:21.327Z,58.60
2017-07-18T05:48:48.866Z,58.90
2017-07-18T05:51:16.443Z,58.90
2017-07-18T05:53:44.006Z,58.60
2017-07-18T05:56:11.568Z,58.70
2017-07-18T05:58:39.132Z,58.00
2017-07-18T06:01:06.654Z,57.80
2017-07-18T06:03:34.186Z,57.80
2017-07-18T06:06:01.808Z,57.40
2017-07-18T06:08:29.371Z,57.60
2017-07-18T06:10:56.894Z,56.80
2017-07-18T06:13:24.474Z,56.90
2017-07-18T06:15:53.242Z,56.90
2017-07-18T06:18:20.821Z,56.90
2017-07-18T06:20:48.342Z,56.90
2017-07-18T06:23:16.658Z,56.00
2017-07-18T06:25:44.215Z,56.00
2017-07-18T06:28:11.737Z,55.80
2017-07-18T06:30:40.062Z,54.00
2017-07-18T06:33:07.713Z,53.80
2017-07-18T06:35:35.775Z,54.50
2017-07-18T06:38:03.354Z,54.20
2017-07-18T06:40:30.903Z,54.30
2017-07-18T06:42:58.443Z,53.90
2017-07-18T06:45:26.022Z,53.70
2017-07-18T06:47:54.029Z,53.50
2017-07-18T06:50:21.879Z,53.50
2017-07-18T06:52:49.630Z,53.00
2017-07-18T06:55:17.278Z,53.00
2017-07-18T06:57:44.935Z,52.60
2017-07-18T07:00:12.507Z,52.30
2017-07-18T07:02:40.056Z,52.50
2017-07-18T07:05:07.575Z,52.20
2017-07-18T07:07:35.888Z,51.90
2017-07-18T07:10:03.439Z,51.80
2017-07-18T07:12:30.970Z,51.10
2017-07-18T07:14:59.250Z,50.40
2017-07-18T07:17:27.569Z,49.70
2017-07-18T07:19:55.217Z,49.70
2017-07-18T07:22:22.734Z,49.80
2017-07-18T07:24:51.064Z,49.10
2017-07-18T07:27:18.613Z,49.10
2017-07-18T07:29:46.234Z,49.20
2017-07-18T07:32:14.582Z,48.80
2017-07-18T07:34:42.239Z,48.80
2017-07-18T07:37:09.854Z,48.50
2017-07-18T07:39:37.434Z,48.40
2017-07-18T07:42:05.967Z,48.90
2017-07-18T07:44:34.391Z,48.50
2017-07-18T07:47:01.970Z,48.50
2017-07-18T07:49:29.513Z,48.60
2017-07-18T07:51:57.069Z,47.50
2017-07-18T07:54:24.626Z,47.50
2017-07-18T07:56:52.173Z,47.20
2017-07-18T07:59:19.746Z,45.70
2017-07-18T08:01:47.260Z,46.10
2017-07-18T08:04:15.559Z,47.10
2017-07-18T08:06:43.150Z,46.30
2017-07-18T08:09:10.794Z,44.90
2017-07-18T08:11:38.358Z,45.00
2017-07-18T08:14:05.917Z,44.50
2017-07-18T08:16:34.001Z,43.80
2017-07-18T08:19:01.546Z,43.10
2017-07-18T08:21:29.117Z,44.90
2017-07-18T08:23:56.665Z,44.00
2017-07-18T08:26:24.236Z,43.80
2017-07-18T08:28:51.796Z,43.70
2017-07-18T08:31:19.342Z,44.10
2017-07-18T08:33:46.901Z,44.40
2017-07-18T08:36:14.422Z,43.50
2017-07-18T08:38:42.738Z,42.20
2017-07-18T08:41:10.261Z,42.20
2017-07-18T08:43:38.545Z,44.00
2017-07-18T08:46:06.141Z,44.70
2017-07-18T08:48:33.669Z,42.70
2017-07-18T08:51:01.255Z,42.40
2017-07-18T08:53:28.779Z,42.30
2017-07-18T08:55:56.366Z,42.80
2017-07-18T08:58:23.890Z,42.20
2017-07-18T09:00:52.171Z,42.20
2017-07-18T09:03:19.710Z,42.10
2017-07-18T09:05:48.034Z,42.70
2017-07-18T09:08:15.594Z,42.00
2017-07-18T09:10:43.113Z,41.80
2017-07-18T09:13:11.430Z,39.20
2017-07-18T09:15:38.986Z,39.20
2017-07-18T09:18:06.549Z,39.90
2017-07-18T09:20:34.065Z,40.80
2017-07-18T09:23:02.382Z,40.70
2017-07-18T09:25:29.941Z,40.60
2017-07-18T09:27:57.605Z,39.30
2017-07-18T09:30:25.168Z,42.00
2017-07-18T09:32:52.722Z,40.10
2017-07-18T09:35:20.241Z,39.10
2017-07-18T09:37:48.559Z,39.20
2017-07-18T09:40:16.214Z,39.10
2017-07-18T09:42:43.776Z,38.90
2017-07-18T09:45:11.330Z,38.30
2017-07-18T09:47:38.850Z,39.50
2017-07-18T09:50:07.138Z,36.00
2017-07-18T09:52:34.725Z,35.90
2017-07-18T09:55:02.286Z,36.00
2017-07-18T09:57:29.846Z,37.60
2017-07-18T09:59:57.410Z,38.90
2017-07-18T10:02:24.927Z,38.40
2017-07-18T10:04:52.517Z,38.10
2017-07-18T10:07:20.034Z,37.60
2017-07-18T10:09:48.358Z,36.50
2017-07-18T10:12:15.917Z,36.30
2017-07-18T10:14:43.472Z,37.30
2017-07-18T10:17:11.050Z,34.60
2017-07-18T10:19:38.569Z,34.90
2017-07-18T10:22:06.086Z,35.30
2017-07-18T10:24:33.609Z,35.90
2017-07-18T10:27:01.163Z,36.50
2017-07-18T10:29:28.731Z,34.70
2017-07-18T10:31:56.291Z,33.90
2017-07-18T10:34:23.846Z,34.50
2017-07-18T10:36:51.401Z,32.50
2017-07-18T10:39:18.962Z,34.00
2017-07-18T10:41:46.507Z,32.60
2017-07-18T10:44:14.033Z,32.90
2017-07-18T10:46:42.370Z,31.70
2017-07-18T10:49:09.914Z,31.70
2017-07-18T10:51:37.438Z,32.60
2017-07-18T10:54:05.858Z,31.00
2017-07-18T10:56:33.390Z,31.00
2017-07-18T10:59:00.910Z,30.80
2017-07-18T11:01:28.525Z,30.90
2017-07-18T11:03:56.087Z,30.90
2017-07-18T11:06:23.754Z,32.60
2017-07-18T11:08:51.305Z,34.00
2017-07-18T11:11:18.821Z,33.40
2017-07-18T11:13:47.142Z,32.50
2017-07-18T11:16:14.697Z,32.50
2017-07-18T11:18:42.366Z,33.40
2017-07-18T11:21:09.917Z,33.40
2017-07-18T11:23:37.430Z,31.50
2017-07-18T11:26:05.754Z,31.40
2017-07-18T11:28:33.313Z,31.40
2017-07-18T11:31:00.875Z,32.20
2017-07-18T11:33:28.446Z,31.40
2017-07-18T11:35:55.966Z,31.50
2017-07-18T11:38:23.752Z,30.80
2017-07-18T11:40:51.313Z,31.10
2017-07-18T11:43:18.875Z,31.90
2017-07-18T11:45:46.442Z,32.10
2017-07-18T11:48:13.991Z,31.00
2017-07-18T11:50:41.550Z,31.20
2017-07-18T11:53:09.213Z,31.10
2017-07-18T11:55:36.770Z,31.30
2017-07-18T11:58:04.326Z,30.00
2017-07-18T12:00:31.898Z,31.90
2017-07-18T12:02:59.455Z,31.40
2017-07-18T12:05:27.003Z,31.60
2017-07-18T12:07:54.550Z,30.50
2017-07-18T12:10:22.130Z,31.00
2017-07-18T12:12:49.678Z,31.00
2017-07-18T12:15:17.222Z,30.10
2017-07-18T12:17:44.797Z,31.10
2017-07-18T12:20:12.370Z,31.50
2017-07-18T12:22:40.022Z,30.30
2017-07-18T12:25:07.586Z,30.00
2017-07-18T12:27:35.138Z,30.30
2017-07-18T12:30:02.682Z,30.40
2017-07-18T12:32:30.254Z,30.00
2017-07-18T12:34:57.814Z,30.00
2017-07-18T12:37:25.373Z,29.70
2017-07-18T12:39:52.902Z,29.20
2017-07-18T12:42:20.487Z,29.20
2017-07-18T12:44:48.058Z,30.10
2017-07-18T12:47:15.610Z,29.50
2017-07-18T12:49:43.170Z,29.00
2017-07-18T12:52:10.827Z,28.90
2017-07-18T12:54:38.386Z,28.90
2017-07-18T12:57:05.950Z,28.50
2017-07-18T12:59:33.607Z,29.40
2017-07-18T13:02:01.121Z,29.00
2017-07-18T13:04:29.414Z,29.40
2017-07-18T13:06:57.002Z,29.30
2017-07-18T13:09:24.571Z,29.10
2017-07-18T13:11:52.325Z,29.60
2017-07-18T13:14:19.881Z,29.00
2017-07-18T13:16:47.446Z,29.10
2017-07-18T13:19:14.967Z,28.50
2017-07-18T13:21:43.257Z,28.30
2017-07-18T13:24:10.805Z,28.30
2017-07-18T13:26:38.395Z,27.90
2017-07-18T13:29:05.954Z,27.80
2017-07-18T13:31:33.570Z,28.30
2017-07-18T13:34:01.854Z,28.50
2017-07-18T13:36:30.269Z,28.30
2017-07-18T13:38:57.826Z,28.20
2017-07-18T13:41:25.389Z,27.90
2017-07-18T13:43:52.913Z,26.80
2017-07-18T13:46:20.430Z,27.50
2017-07-18T13:48:47.983Z,26.90
2017-07-18T13:51:15.502Z,26.60
2017-07-18T13:53:43.077Z,27.20
2017-07-18T13:56:10.745Z,27.40
2017-07-18T13:58:38.269Z,27.10
2017-07-18T14:01:05.854Z,27.60
2017-07-18T14:03:33.377Z,27.50
2017-07-18T14:06:01.706Z,27.20
2017-07-18T14:08:29.253Z,27.10
2017-07-18T14:10:56.801Z,27.60
2017-07-18T14:13:24.358Z,27.10
2017-07-18T14:15:51.882Z,26.60
2017-07-18T14:18:20.202Z,26.80
2017-07-18T14:20:47.728Z,26.40
2017-07-18T14:23:16.010Z,26.60
2017-07-18T14:25:43.806Z,26.50
2017-07-18T14:28:11.325Z,26.80
2017-07-18T14:30:39.623Z,27.50
2017-07-18T14:33:07.149Z,27.50
2017-07-18T14:35:35.446Z,27.40
2017-07-18T14:38:02.996Z,27.10
2017-07-18T14:40:31.350Z,27.70
2017-07-18T14:42:58.974Z,27.60
2017-07-18T14:45:26.537Z,26.90
2017-07-18T14:47:54.070Z,27.10
2017-07-18T14:50:21.640Z,26.90
2017-07-18T14:52:49.980Z,26.40
2017-07-18T14:55:18.299Z,25.60
2017-07-18T14:57:45.861Z,25.60
2017-07-18T15:00:13.381Z,26.00
2017-07-18T15:02:41.797Z,25.80
2017-07-18T15:05:09.313Z,25.70
2017-07-18T15:07:37.634Z,25.90
2017-07-18T15:10:05.193Z,25.90
2017-07-18T15:12:32.754Z,26.40
2017-07-18T15:15:00.414Z,26.10
2017-07-18T15:17:27.970Z,26.20
2017-07-18T15:19:55.494Z,26.80
2017-07-18T15:22:23.815Z,26.10
2017-07-18T15:24:51.379Z,26.00
2017-07-18T15:27:19.028Z,25.20
2017-07-18T15:29:46.685Z,27.00
2017-07-18T15:32:14.246Z,27.10
2017-07-18T15:34:41.849Z,26.80
2017-07-18T15:37:09.368Z,25.80
2017-07-18T15:39:37.021Z,26.00
2017-07-18T15:42:04.596Z,26.00
2017-07-18T15:44:32.150Z,25.60
2017-07-18T15:46:59.698Z,25.30
2017-07-18T15:49:27.269Z,25.40
2017-07-18T15:51:54.901Z,25.70
2017-07-18T15:54:22.495Z,25.60
2017-07-18T15:56:50.059Z,26.00
2017-07-18T15:59:17.573Z,25.50
2017-07-18T16:01:45.162Z,25.10
2017-07-18T16:04:12.817Z,25.50
2017-07-18T16:06:40.401Z,25.50
2017-07-18T16:09:07.936Z,24.80
2017-07-18T16:11:35.496Z,25.80
2017-07-18T16:14:03.039Z,25.70
2017-07-18T16:16:30.630Z,25.40
2017-07-18T16:18:58.177Z,25.80
2017-07-18T16:21:25.733Z,25.70
2017-07-18T16:23:53.287Z,26.10
2017-07-18T16:26:20.858Z,26.60
2017-07-18T16:28:48.510Z,26.80
2017-07-18T16:31:16.078Z,26.40
2017-07-18T16:33:43.602Z,27.10
2017-07-18T16:36:11.122Z,27.70
2017-07-18T16:38:38.670Z,28.00
2017-07-18T16:41:06.216Z,27.60
2017-07-18T16:43:33.761Z,27.60
2017-07-18T16:46:01.326Z,28.00
2017-07-18T16:48:28.852Z,28.60
2017-07-18T16:50:56.536Z,28.50
2017-07-18T16:53:24.108Z,28.80
2017-07-18T16:55:51.642Z,28.60
2017-07-18T16:58:19.176Z,28.40
2017-07-18T17:00:47.503Z,28.40
2017-07-18T17:03:15.049Z,28.40
2017-07-18T17:05:42.614Z,29.10
2017-07-18T17:08:10.179Z,29.50
2017-07-18T17:10:37.733Z,29.60
2017-07-18T17:13:05.298Z,30.10
2017-07-18T17:15:32.854Z,30.60
2017-07-18T17:18:00.505Z,30.60
2017-07-18T17:20:28.027Z,30.70
2017-07-18T17:22:56.342Z,31.60
2017-07-18T17:25:23.853Z,31.60
2017-07-18T17:27:52.181Z,32.20
2017-07-18T17:30:19.737Z,32.20
2017-07-18T17:32:47.294Z,32.50
2017-07-18T17:35:14.862Z,32.50
2017-07-18T17:37:42.419Z,32.20
2017-07-18T17:40:09.981Z,32.70
2017-07-18T17:42:37.545Z,32.80
2017-07-18T17:45:05.097Z,33.20
2017-07-18T17:47:32.651Z,33.50
2017-07-18T17:50:00.225Z,33.50
2017-07-18T17:52:27.749Z,33.40
2017-07-18T17:54:55.289Z,33.70
2017-07-18T17:57:23.603Z,33.80
2017-07-18T17:59:51.162Z,33.70
2017-07-18T18:02:18.723Z,33.60
2017-07-18T18:04:46.277Z,33.60
2017-07-18T18:07:13.942Z,34.40
2017-07-18T18:09:59.664Z,34.50
2017-07-18T18:12:27.698Z,35.10
2017-07-18T18:14:55.266Z,34.90
2017-07-18T18:17:22.786Z,35.00
2017-07-18T18:19:50.374Z,35.10
2017-07-18T18:22:17.942Z,35.10
2017-07-18T18:24:45.594Z,35.30
2017-07-18T18:27:13.561Z,35.10
2017-07-18T18:29:41.473Z,36.20
2017-07-18T18:32:09.341Z,35.60
2017-07-18T18:34:37.070Z,35.90
2017-07-18T18:37:04.726Z,36.20
2017-07-18T18:39:32.278Z,36.70
2017-07-18T18:41:59.843Z,36.90
2017-07-18T18:44:27.485Z,36.20
2017-07-18T18:46:55.009Z,36.60
2017-07-18T18:49:23.447Z,37.10
2017-07-18T18:51:51.403Z,37.00
2017-07-18T18:54:19.214Z,36.90
2017-07-18T18:56:46.741Z,37.70
2017-07-18T18:59:14.286Z,37.70
2017-07-18T19:01:41.830Z,37.50
2017-07-18T19:04:09.403Z,37.80
2017-07-18T19:06:36.972Z,37.90
2017-07-18T19:09:04.906Z,38.20
2017-07-18T19:11:32.490Z,38.30
2017-07-18T19:14:00.259Z,38.60
2017-07-18T19:16:27.922Z,38.70
2017-07-18T19:18:55.458Z,38.80
2017-07-18T19:21:23.034Z,38.70
2017-07-18T19:23:50.554Z,39.10
2017-07-18T19:26:18.968Z,39.00
2017-07-18T19:28:46.533Z,39.00
2017-07-18T19:31:14.086Z,39.40
2017-07-18T19:33:41.626Z,39.70
2017-07-18T19:36:09.158Z,39.70
2017-07-18T19:38:37.595Z,39.70
2017-07-18T19:41:05.146Z,39.60
2017-07-18T19:43:32.778Z,39.70
2017-07-18T19:46:00.353Z,40.00
2017-07-18T19:48:27.930Z,40.00
2017-07-18T19:50:55.585Z,40.20
2017-07-18T19:53:23.166Z,40.40
2017-07-18T19:55:50.722Z,40.60
2017-07-18T19:58:19.194Z,40.60
2017-07-18T20:00:46.722Z,40.60
2017-07-18T20:03:14.306Z,41.30
2017-07-18T20:05:41.863Z,41.30
2017-07-18T20:08:09.430Z,41.40
2017-07-18T20:10:38.207Z,41.50
2017-07-18T20:13:05.725Z,41.50
2017-07-18T20:15:34.143Z,42.10
2017-07-18T20:18:01.661Z,42.10
2017-07-18T20:20:29.986Z,42.30
2017-07-18T20:22:57.537Z,42.20
2017-07-18T20:25:25.142Z,42.20
2017-07-18T20:27:52.685Z,42.50
2017-07-18T20:30:20.315Z,42.50
2017-07-18T20:32:47.842Z,43.10
2017-07-18T20:35:16.177Z,43.20
2017-07-18T20:37:43.709Z,43.20
2017-07-18T20:40:11.378Z,43.50
2017-07-18T20:42:38.950Z,44.00
2017-07-18T20:45:06.489Z,44.30
2017-07-18T20:47:34.055Z,45.00
2017-07-18T20:50:01.610Z,44.70
2017-07-18T20:52:29.186Z,44.80
2017-07-18T20:54:56.727Z,44.70
2017-07-18T20:57:24.293Z,44.90
2017-07-18T20:59:51.842Z,44.90
2017-07-18T21:02:19.402Z,44.70
2017-07-18T21:04:46.950Z,44.60
2017-07-18T21:07:14.526Z,44.70
2017-07-18T21:09:42.087Z,44.80
2017-07-18T21:12:09.613Z,45.40
2017-07-18T21:14:37.197Z,45.90
2017-07-18T21:17:04.730Z,46.30
2017-07-18T21:19:32.253Z,46.30
2017-07-18T21:21:59.802Z,46.20
2017-07-18T21:24:27.433Z,45.90
2017-07-18T21:26:54.998Z,45.80
2017-07-18T21:29:22.546Z,45.90
2017-07-18T21:31:50.106Z,45.80
2017-07-18T21:34:17.654Z,45.50
2017-07-18T21:36:45.234Z,45.70
2017-07-18T21:39:12.759Z,45.90
2017-07-18T21:41:40.359Z,46.10
2017-07-18T21:44:07.922Z,46.00
2017-07-18T21:46:35.574Z,45.90
2017-07-18T21:49:03.123Z,46.20
2017-07-18T21:51:30.681Z,45.80
2017-07-18T21:53:58.202Z,46.80
2017-07-18T21:56:26.517Z,46.50
2017-07-18T21:58:54.891Z,46.40
2017-07-18T22:01:22.454Z,46.80
2017-07-18T22:03:50.018Z,46.80
2017-07-18T22:06:17.573Z,47.10
2017-07-18T22:08:45.090Z,47.30
2017-07-18T22:11:13.406Z,47.30
2017-07-18T22:13:40.966Z,47.20
2017-07-18T22:16:08.482Z,47.00
2017-07-18T22:18:36.002Z,47.30
2017-07-18T22:21:03.517Z,47.00
2017-07-18T22:23:31.099Z,47.10
2017-07-18T22:25:58.614Z,47.10
2017-07-18T22:28:26.934Z,46.90
2017-07-18T22:30:54.489Z,47.60
2017-07-18T22:33:22.050Z,46.90
2017-07-18T22:35:49.606Z,46.80
2017-07-18T22:38:17.126Z,46.80
2017-07-18T22:40:45.422Z,46.60
2017-07-18T22:43:13.001Z,46.50
2017-07-18T22:45:40.530Z,46.50
2017-07-18T22:48:08.118Z,46.60
2017-07-18T22:50:35.678Z,46.60
2017-07-18T22:53:03.246Z,46.50
2017-07-18T22:55:30.777Z,46.50
2017-07-18T22:57:58.356Z,47.10
2017-07-18T23:00:25.927Z,46.40
2017-07-18T23:02:53.474Z,46.30
2017-07-18T23:05:21.029Z,47.20
2017-07-18T23:07:48.589Z,47.20
2017-07-18T23:10:16.155Z,47.00
2017-07-18T23:12:43.815Z,47.10
2017-07-18T23:15:11.370Z,47.10
2017-07-18T23:17:38.894Z,47.40
2017-07-18T23:20:07.214Z,48.00
2017-07-18T23:22:34.769Z,48.00
2017-07-18T23:25:02.422Z,48.30
2017-07-18T23:27:29.947Z,48.30
2017-07-18T23:29:58.259Z,48.20
2017-07-18T23:32:25.825Z,48.10
2017-07-18T23:34:53.350Z,48.40
2017-07-18T23:37:20.893Z,48.80
2017-07-18T23:39:49.218Z,48.70
2017-07-18T23:42:16.782Z,48.70
2017-07-18T23:44:44.329Z,48.50
2017-07-18T23:47:11.890Z,48.30
2017-07-18T23:49:39.433Z,48.20
2017-07-18T23:52:07.005Z,47.40
2017-07-18T23:54:34.521Z,47.90
2017-07-18T23:57:02.845Z,47.10
2017-07-18T23:59:30.404Z,47.00
